Aérodrome :
LOGIN :

S'inscrire | Disclaimer

   EN    FR    IT 

 










Légende :    VFR   VFR Marginal   IFR   IFR Intensif   IFR Très Intensif
Visi : 
Plafond : 
>= 8 km
>= 3000ft
5 à 8 km
1000 à 3000 ft
1500m à 5 km
500 à 1000 ft
800 à 1500m
200 à 500 ft
< 800m
< 200 ft
Symboles :   Orages  Brouillard  Fortes neiges  Fortes précipitations  Vent > 20 kt
SIGMETs :   Divers  Orages  Givrage  Turbulence  Onde Orograph.  Cendres Volcan.






- Altitude de l'aérodrome : 359 ft
- Code IATA : DEB


LHDC - Debrecen

DERNIER METAR :
  • 150021Z AUTO VRB02KT 3100 BR NSC 11/11 Q1012

METARs EXPIRÉS :
  • 142345Z AUTO 01001KT 3900 BR NSC 12/12 Q1012
  • 142315Z AUTO VRB02KT 3900 BR NSC 12/12 Q1012 BECMG BKN015
  • 142245Z AUTO VRB02KT 3400 BR NSC 12/12 Q1012 BECMG BKN015
  • 142215Z AUTO VRB03KT 4500 BR FEW034 BKN073 12/12 Q1012 BECMG BKN015
  • 142145Z AUTO 06005KT 4000 -SHRA BR FEW049 BKN069 12/12 Q1012 BECMG BKN015
  • 142115Z AUTO 06005KT 3600 -SHRA BR NSC 12/12 Q1012 NOSIG

TAF TAF LHDC
Valide du 14 à 21h jusqu'au 15 à 06h UTC


142015Z 1421/1506 05004KT 5000 BR NSC
TEMPO 1421/1506 3000 BR -RA -DZ BKN005 BKN050
PROB30
TEMPO 1421/1501 SHRA SCT005 FEW030TCU BKN050
PROB40
TEMPO 1500/1506 1000 BCFG BR BKN002



MET'MAP, la Météo Aéronautique d'un coup d'oeil ! - Copyright ORBIFLY Décembre 2007 - Disclaimer

ORBIFLY MET'MAP TEAM :

Programmation & Développement : Alexandra Zaïnal
Conception & Développement : Baudouin d'Aumeries
Co-Programmation & Développement : Marc-Olivier Méhu
Soutien technique & logistique : Manuel Goepfert

Contact : metmap@orbifly.com




SOURCES & CREDITS :

   NOAA